x

Apk - Aripeka, Fl (arpf1) Weather Station

12:54pm - Thu 16th Nov 2017 All times are EST. -5 hours from GMT.

  • Wind
    3mph, 8mph gusts
  • Air Temp 68°f
  • Sea Pressure 1017.2mb
  • Apk - Aripeka, Fl
  • Apk - Aripeka, Fl

More Historic Weather Station data

Upgrade to MSW Pro to gain access to the past 30 days of data for over 8000 Wavebouys and Weather Stations around the globe.

Join

Comparision Forecast

View Surf forecast
   
Thu 11/16 12:54pm 3 8 mph 1017.2mb 68f
12:48pm 5 13 mph 1017.3mb 68f
11:54am 5 9 mph 1018.1mb 67f
11:48am 6 10 mph 1018.2mb 66f
10:54am 5 8 mph 1019mb 66f
10:48am 5 8 mph 1019mb 65f
9:54am 5 8 mph 1019.2mb 64f
9:48am 6 8 mph 1019.2mb 64f
8:54am 7 8 mph 1019.3mb 62f
8:48am 7 9 mph 1019.3mb 61f
7:54am 5 6 mph 1018.8mb 58f
7:48am 5 6 mph 1018.8mb 57f
6:54am 5 8 mph 1018.5mb 58f
6:48am 5 8 mph 1018.5mb 58f
5:54am 9 11 mph 1018.4mb 59f
4:54am 2 6 mph 1018.2mb 59f
4:48am 1 3 mph 1018.2mb 59f
3:54am 2 6 mph 1017.7mb 61f
2:54am 6 8 mph 1017.5mb 60f
2:48am 5 8 mph 1017.5mb 60f
1:54am 7 9 mph 1017.7mb 61f
1:48am 6 9 mph 1017.7mb 60f
12:54am 6 11 mph 1017.5mb 60f
12:48am 8 10 mph 1017.5mb 60f
Wed 11/15 11:54pm 8 14 mph 1017.6mb 60f
11:48pm 8 10 mph 1017.7mb 60f
10:54pm 8 10 mph 1017.9mb 60f
10:48pm 8 11 mph 1017.9mb 60f
9:54pm 9 11 mph 1017.8mb 62f
8:54pm 8 11 mph 1017.5mb 63f
8:48pm 8 11 mph 1017.4mb 63f
7:54pm 8 11 mph 1016.9mb 65f
7:48pm 7 9 mph 1016.8mb 65f
6:54pm 7 8 mph 1016.5mb 68f
6:48pm 6 8 mph 1016.5mb 68f
5:54pm 2 8 mph 1016.1mb 69f
5:48pm 2 9 mph 1016.1mb 69f
4:54pm 5 11 mph 1015.8mb 71f
4:48pm 5 10 mph 1015.7mb 70f
3:54pm 5 10 mph 1015.4mb 72f
3:48pm 3 8 mph 1015.3mb 71f
2:54pm 3 9 mph 1015.2mb 73f
2:48pm 5 11 mph 1015.2mb 72f
1:54pm 5 10 mph 1015.3mb 72f
1:48pm 6 10 mph 1015.4mb 72f
12:54pm 7 11 mph 1015.9mb 73f
12:48pm 9 14 mph 1015.9mb 73f
11:54am 6 9 mph 1017.1mb 71f
10:54am 10 15 mph 1017.9mb 68f
10:48am 10 15 mph 1017.9mb 67f
9:54am 13 18 mph 1018.1mb 64f
9:48am 11 16 mph 1018.2mb 63f
8:54am 8 14 mph 1018.3mb 60f
8:48am 9 13 mph 1018.3mb 59f
7:54am 8 13 mph 1018mb 56f
6:54am 7 11 mph 1017.6mb 54f
6:48am 6 10 mph 1017.5mb 54f
5:54am 6 10 mph 1017.1mb 54f
5:48am 6 9 mph 1017mb 54f
4:54am 7 10 mph 1016.6mb 55f
4:48am 6 10 mph 1016.6mb 55f
3:54am 7 9 mph 1016.3mb 56f
3:48am 6 9 mph 1016.3mb 56f
2:54am 8 11 mph 1016.4mb 57f
2:48am 9 11 mph 1016.3mb 57f
1:54am 8 13 mph 1016.5mb 58f
1:48am 9 13 mph 1016.6mb 58f
12:54am 9 13 mph 1017.2mb 58f
12:48am 9 14 mph 1017.2mb 58f
Tue 11/14 11:54pm 9 13 mph 1017.7mb 60f
10:54pm 10 16 mph 1018.2mb 61f
10:48pm 8 13 mph 1018.2mb 61f
9:54pm 11 17 mph 1018.1mb 63f
9:48pm 13 20 mph 1018mb 63f
8:54pm 10 16 mph 1017.7mb 65f
8:48pm 11 17 mph 1017.7mb 65f
7:54pm 11 14 mph 1017.5mb 67f
6:54pm 9 14 mph 1017.2mb 68f
6:48pm 9 16 mph 1017.1mb 68f
5:54pm 11 18 mph 1016.3mb 71f
5:48pm 10 17 mph 1016.3mb 71f
4:54pm 6 11 mph 1015.7mb 75f
3:54pm 5 10 mph 1015.4mb 78f
3:48pm 3 9 mph 1015.4mb 78f
2:54pm 6 10 mph 1015.6mb 76f
2:48pm 5 9 mph 1015.7mb 75f
1:54pm 5 9 mph 1016mb 74f
1:48pm 6 9 mph 1016.2mb 75f
12:54pm 5 8 mph 1017.1mb 76f
12:48pm 3 8 mph 1017.2mb 77f
11:54am 7 11 mph 1018.2mb 76f
11:48am 7 13 mph 1018.3mb 75f
10:54am 8 14 mph 1019mb 74f
10:48am 9 15 mph 1019.2mb 73f
9:54am 7 11 mph 1019.8mb 71f
9:48am 8 10 mph 1019.8mb 71f
8:54am 8 13 mph 1019.8mb 67f
7:54am 8 10 mph 1019.8mb 64f
7:48am 8 10 mph 1019.9mb 64f
6:54am 7 10 mph 1019.2mb 64f
6:48am 8 11 mph 1019.2mb 63f
5:54am 9 15 mph 1018.8mb 64f
5:48am 9 13 mph 1018.7mb 63f
4:54am 9 11 mph 1018.8mb 64f
4:48am 9 13 mph 1018.7mb 64f
3:54am 8 11 mph 1018.5mb 65f
3:48am 10 13 mph 1018.5mb 64f
2:54am 7 10 mph 1018.6mb 65f
2:48am 8 11 mph 1018.6mb 65f
1:54am 8 10 mph 1018.8mb 66f
1:48am 8 13 mph 1018.9mb 66f
12:54am 9 13 mph 1019.2mb 67f
12:48am 9 13 mph 1019.2mb 67f
Mon 11/13 11:54pm 9 11 mph 1019.6mb 67f
11:48pm 9 14 mph 1019.7mb 67f
10:54pm 10 13 mph 1019.9mb 68f
10:48pm 9 11 mph 1020.1mb 68f
9:54pm 10 16 mph 1020.4mb 70f
9:48pm 10 15 mph 1020.3mb 70f
8:54pm 8 13 mph 1020.2mb 71f
8:48pm 7 9 mph 1020.1mb 71f
7:54pm 7 9 mph 1019.8mb 73f
7:48pm 8 11 mph 1019.9mb 73f
6:54pm 7 9 mph 1019.3mb 74f